sensor_id;sensor_type;location;lat;lon;timestamp;temperature;humidity
57709;SHT35;42558;52.388;13.390;2024-02-04T00:01:07;7.93;86.82
57709;SHT35;42558;52.388;13.390;2024-02-04T00:03:38;7.87;86.89
57709;SHT35;42558;52.388;13.390;2024-02-04T00:06:11;7.88;86.90
57709;SHT35;42558;52.388;13.390;2024-02-04T00:08:54;7.82;87.00
57709;SHT35;42558;52.388;13.390;2024-02-04T00:11:28;7.81;86.49
57709;SHT35;42558;52.388;13.390;2024-02-04T00:13:58;7.76;86.05
57709;SHT35;42558;52.388;13.390;2024-02-04T00:16:37;7.74;85.31
57709;SHT35;42558;52.388;13.390;2024-02-04T00:19:14;7.70;84.75
57709;SHT35;42558;52.388;13.390;2024-02-04T00:21:58;7.64;84.44
57709;SHT35;42558;52.388;13.390;2024-02-04T00:24:32;7.64;83.85
57709;SHT35;42558;52.388;13.390;2024-02-04T00:27:03;7.60;83.70
57709;SHT35;42558;52.388;13.390;2024-02-04T00:29:35;7.50;83.75
57709;SHT35;42558;52.388;13.390;2024-02-04T00:32:09;7.45;83.60
57709;SHT35;42558;52.388;13.390;2024-02-04T00:34:46;7.41;83.50
57709;SHT35;42558;52.388;13.390;2024-02-04T00:37:19;7.36;83.30
57709;SHT35;42558;52.388;13.390;2024-02-04T00:39:49;7.38;82.84
57709;SHT35;42558;52.388;13.390;2024-02-04T00:42:28;7.33;82.93
57709;SHT35;42558;52.388;13.390;2024-02-04T00:44:59;7.31;83.02
57709;SHT35;42558;52.388;13.390;2024-02-04T00:47:28;7.30;83.03
57709;SHT35;42558;52.388;13.390;2024-02-04T00:50:00;7.24;83.13
57709;SHT35;42558;52.388;13.390;2024-02-04T00:52:38;7.18;83.55
57709;SHT35;42558;52.388;13.390;2024-02-04T00:55:14;7.13;83.71
57709;SHT35;42558;52.388;13.390;2024-02-04T00:57:48;7.05;83.96
57709;SHT35;42558;52.388;13.390;2024-02-04T01:00:28;7.04;83.68
57709;SHT35;42558;52.388;13.390;2024-02-04T01:03:09;6.98;83.17
57709;SHT35;42558;52.388;13.390;2024-02-04T01:05:48;7.11;81.09
57709;SHT35;42558;52.388;13.390;2024-02-04T01:08:24;7.18;80.18
57709;SHT35;42558;52.388;13.390;2024-02-04T01:11:09;7.11;80.37
57709;SHT35;42558;52.388;13.390;2024-02-04T01:13:59;7.06;80.67
57709;SHT35;42558;52.388;13.390;2024-02-04T01:16:29;6.99;81.04
57709;SHT35;42558;52.388;13.390;2024-02-04T01:19:00;6.94;81.41
57709;SHT35;42558;52.388;13.390;2024-02-04T01:21:33;6.88;81.80
57709;SHT35;42558;52.388;13.390;2024-02-04T01:24:09;6.78;82.26
57709;SHT35;42558;52.388;13.390;2024-02-04T01:26:45;6.68;82.80
57709;SHT35;42558;52.388;13.390;2024-02-04T01:29:14;6.60;83.30
57709;SHT35;42558;52.388;13.390;2024-02-04T01:31:49;6.55;84.13
57709;SHT35;42558;52.388;13.390;2024-02-04T01:34:22;6.51;84.34
57709;SHT35;42558;52.388;13.390;2024-02-04T01:36:59;6.44;84.57
57709;SHT35;42558;52.388;13.390;2024-02-04T01:39:32;6.33;84.83
57709;SHT35;42558;52.388;13.390;2024-02-04T01:42:09;6.24;85.24
57709;SHT35;42558;52.388;13.390;2024-02-04T01:44:43;6.17;85.59
57709;SHT35;42558;52.388;13.390;2024-02-04T01:47:14;6.12;86.04
57709;SHT35;42558;52.388;13.390;2024-02-04T01:49:49;6.14;86.69
57709;SHT35;42558;52.388;13.390;2024-02-04T01:52:22;6.10;86.78
57709;SHT35;42558;52.388;13.390;2024-02-04T01:54:57;6.10;87.05
57709;SHT35;42558;52.388;13.390;2024-02-04T01:57:42;6.17;87.56
57709;SHT35;42558;52.388;13.390;2024-02-04T02:00:15;6.17;87.60
57709;SHT35;42558;52.388;13.390;2024-02-04T02:02:49;6.17;87.73
57709;SHT35;42558;52.388;13.390;2024-02-04T02:05:28;6.16;87.90
57709;SHT35;42558;52.388;13.390;2024-02-04T02:08:09;6.14;88.00
57709;SHT35;42558;52.388;13.390;2024-02-04T02:10:49;6.14;88.05
57709;SHT35;42558;52.388;13.390;2024-02-04T02:14:02;6.07;87.91
57709;SHT35;42558;52.388;13.390;2024-02-04T02:16:49;6.03;88.02
57709;SHT35;42558;52.388;13.390;2024-02-04T02:24:56;5.97;87.91
57709;SHT35;42558;52.388;13.390;2024-02-04T02:27:48;5.96;87.68
57709;SHT35;42558;52.388;13.390;2024-02-04T02:30:25;5.88;87.60
57709;SHT35;42558;52.388;13.390;2024-02-04T02:33:04;5.92;87.75
57709;SHT35;42558;52.388;13.390;2024-02-04T02:35:51;5.90;87.67
57709;SHT35;42558;52.388;13.390;2024-02-04T02:39:13;5.89;87.70
57709;SHT35;42558;52.388;13.390;2024-02-04T02:42:05;5.85;87.81
57709;SHT35;42558;52.388;13.390;2024-02-04T02:44:43;5.80;87.87
57709;SHT35;42558;52.388;13.390;2024-02-04T02:47:19;5.78;88.15
57709;SHT35;42558;52.388;13.390;2024-02-04T02:50:08;5.79;88.22
57709;SHT35;42558;52.388;13.390;2024-02-04T02:52:56;5.84;88.45
57709;SHT35;42558;52.388;13.390;2024-02-04T02:55:27;5.88;88.39
57709;SHT35;42558;52.388;13.390;2024-02-04T02:57:58;5.85;88.35
57709;SHT35;42558;52.388;13.390;2024-02-04T03:00:29;5.85;88.44
57709;SHT35;42558;52.388;13.390;2024-02-04T03:03:01;5.86;88.62
57709;SHT35;42558;52.388;13.390;2024-02-04T03:05:30;5.86;88.74
57709;SHT35;42558;52.388;13.390;2024-02-04T03:08:09;5.85;88.71
57709;SHT35;42558;52.388;13.390;2024-02-04T03:10:45;5.84;88.82
57709;SHT35;42558;52.388;13.390;2024-02-04T03:13:14;5.88;88.94
57709;SHT35;42558;52.388;13.390;2024-02-04T03:15:49;5.88;88.90
57709;SHT35;42558;52.388;13.390;2024-02-04T03:18:20;5.87;88.88
57709;SHT35;42558;52.388;13.390;2024-02-04T03:20:59;5.93;88.97
57709;SHT35;42558;52.388;13.390;2024-02-04T03:23:29;6.02;88.92
57709;SHT35;42558;52.388;13.390;2024-02-04T03:26:07;6.08;88.66
57709;SHT35;42558;52.388;13.390;2024-02-04T03:28:39;6.17;88.35
57709;SHT35;42558;52.388;13.390;2024-02-04T03:31:09;6.18;88.14
57709;SHT35;42558;52.388;13.390;2024-02-04T03:33:50;6.20;88.04
57709;SHT35;42558;52.388;13.390;2024-02-04T03:36:30;6.21;87.90
57709;SHT35;42558;52.388;13.390;2024-02-04T03:39:05;6.26;87.80
57709;SHT35;42558;52.388;13.390;2024-02-04T03:41:42;6.32;87.58
57709;SHT35;42558;52.388;13.390;2024-02-04T03:44:14;6.34;87.35
57709;SHT35;42558;52.388;13.390;2024-02-04T03:46:49;6.36;87.26
57709;SHT35;42558;52.388;13.390;2024-02-04T03:49:20;6.35;87.21
57709;SHT35;42558;52.388;13.390;2024-02-04T03:51:51;6.38;87.12
57709;SHT35;42558;52.388;13.390;2024-02-04T03:54:22;6.34;87.13
57709;SHT35;42558;52.388;13.390;2024-02-04T03:56:54;6.33;87.16
57709;SHT35;42558;52.388;13.390;2024-02-04T03:59:23;6.32;87.13
57709;SHT35;42558;52.388;13.390;2024-02-04T04:01:53;6.33;87.05
57709;SHT35;42558;52.388;13.390;2024-02-04T04:04:26;6.30;86.91
57709;SHT35;42558;52.388;13.390;2024-02-04T04:07:01;6.24;86.90
57709;SHT35;42558;52.388;13.390;2024-02-04T04:09:43;6.17;86.93
57709;SHT35;42558;52.388;13.390;2024-02-04T04:12:14;6.18;86.80
57709;SHT35;42558;52.388;13.390;2024-02-04T04:14:42;6.11;86.64
57709;SHT35;42558;52.388;13.390;2024-02-04T04:17:10;6.04;86.66
57709;SHT35;42558;52.388;13.390;2024-02-04T04:19:40;5.99;86.70
57709;SHT35;42558;52.388;13.390;2024-02-04T04:22:14;5.99;86.70
57709;SHT35;42558;52.388;13.390;2024-02-04T04:24:50;5.92;86.65
57709;SHT35;42558;52.388;13.390;2024-02-04T04:27:20;5.87;86.86
57709;SHT35;42558;52.388;13.390;2024-02-04T04:29:50;5.87;86.82
57709;SHT35;42558;52.388;13.390;2024-02-04T04:32:20;5.81;86.71
57709;SHT35;42558;52.388;13.390;2024-02-04T04:34:51;5.75;86.79
57709;SHT35;42558;52.388;13.390;2024-02-04T04:37:21;5.69;86.87
57709;SHT35;42558;52.388;13.390;2024-02-04T04:39:52;5.63;87.02
57709;SHT35;42558;52.388;13.390;2024-02-04T04:42:23;5.62;87.16
57709;SHT35;42558;52.388;13.390;2024-02-04T04:44:59;5.58;87.18
57709;SHT35;42558;52.388;13.390;2024-02-04T04:47:33;5.55;87.18
57709;SHT35;42558;52.388;13.390;2024-02-04T04:50:08;5.49;87.30
57709;SHT35;42558;52.388;13.390;2024-02-04T04:52:38;5.52;87.26
57709;SHT35;42558;52.388;13.390;2024-02-04T04:55:11;5.50;87.05
57709;SHT35;42558;52.388;13.390;2024-02-04T04:57:47;5.42;86.98
57709;SHT35;42558;52.388;13.390;2024-02-04T05:00:18;5.47;86.97
57709;SHT35;42558;52.388;13.390;2024-02-04T05:02:56;5.44;86.79
57709;SHT35;42558;52.388;13.390;2024-02-04T05:05:34;5.44;86.76
57709;SHT35;42558;52.388;13.390;2024-02-04T05:08:14;5.41;86.59
57709;SHT35;42558;52.388;13.390;2024-02-04T05:10:54;5.32;86.70
57709;SHT35;42558;52.388;13.390;2024-02-04T05:13:26;5.26;86.83
57709;SHT35;42558;52.388;13.390;2024-02-04T05:15:58;5.28;87.04
57709;SHT35;42558;52.388;13.390;2024-02-04T05:18:39;5.22;86.93
57709;SHT35;42558;52.388;13.390;2024-02-04T05:21:11;5.17;87.15
57709;SHT35;42558;52.388;13.390;2024-02-04T05:23:45;5.13;87.20
57709;SHT35;42558;52.388;13.390;2024-02-04T05:26:19;5.05;87.24
57709;SHT35;42558;52.388;13.390;2024-02-04T05:28:50;5.01;87.46
57709;SHT35;42558;52.388;13.390;2024-02-04T05:31:20;5.10;87.84
57709;SHT35;42558;52.388;13.390;2024-02-04T05:33:53;5.09;87.68
57709;SHT35;42558;52.388;13.390;2024-02-04T05:36:30;5.07;87.69
57709;SHT35;42558;52.388;13.390;2024-02-04T05:39:10;5.16;87.78
57709;SHT35;42558;52.388;13.390;2024-02-04T05:41:50;5.12;87.43
57709;SHT35;42558;52.388;13.390;2024-02-04T05:44:20;5.11;87.57
57709;SHT35;42558;52.388;13.390;2024-02-04T05:46:50;5.15;87.56
57709;SHT35;42558;52.388;13.390;2024-02-04T05:49:20;5.08;87.30
57709;SHT35;42558;52.388;13.390;2024-02-04T05:51:51;5.01;87.35
57709;SHT35;42558;52.388;13.390;2024-02-04T05:54:21;4.96;87.47
57709;SHT35;42558;52.388;13.390;2024-02-04T05:56:51;5.06;87.90
57709;SHT35;42558;52.388;13.390;2024-02-04T05:59:19;5.16;87.72
57709;SHT35;42558;52.388;13.390;2024-02-04T06:01:48;5.28;87.49
57709;SHT35;42558;52.388;13.390;2024-02-04T06:04:17;5.37;87.12
57709;SHT35;42558;52.388;13.390;2024-02-04T06:06:58;5.45;86.95
57709;SHT35;42558;52.388;13.390;2024-02-04T06:09:30;5.47;86.76
57709;SHT35;42558;52.388;13.390;2024-02-04T06:12:10;5.44;86.73
57709;SHT35;42558;52.388;13.390;2024-02-04T06:14:51;5.46;86.98
57709;SHT35;42558;52.388;13.390;2024-02-04T06:17:27;5.53;86.92
57709;SHT35;42558;52.388;13.390;2024-02-04T06:19:59;5.56;86.83
57709;SHT35;42558;52.388;13.390;2024-02-04T06:22:48;5.65;86.78
57709;SHT35;42558;52.388;13.390;2024-02-04T06:25:19;5.65;86.58
57709;SHT35;42558;52.388;13.390;2024-02-04T06:27:50;5.61;86.59
57709;SHT35;42558;52.388;13.390;2024-02-04T06:30:22;5.69;86.70
57709;SHT35;42558;52.388;13.390;2024-02-04T06:32:57;5.68;86.52
57709;SHT35;42558;52.388;13.390;2024-02-04T06:35:47;5.72;86.63
57709;SHT35;42558;52.388;13.390;2024-02-04T06:38:19;5.72;86.47
57709;SHT35;42558;52.388;13.390;2024-02-04T06:40:52;5.69;86.47
57709;SHT35;42558;52.388;13.390;2024-02-04T06:43:28;5.67;86.69
57709;SHT35;42558;52.388;13.390;2024-02-04T06:46:10;5.79;86.79
57709;SHT35;42558;52.388;13.390;2024-02-04T06:48:49;5.78;86.61
57709;SHT35;42558;52.388;13.390;2024-02-04T06:51:17;5.72;86.77
57709;SHT35;42558;52.388;13.390;2024-02-04T06:53:45;5.83;86.94
57709;SHT35;42558;52.388;13.390;2024-02-04T06:56:14;5.83;86.64
57709;SHT35;42558;52.388;13.390;2024-02-04T06:58:42;5.84;86.75
57709;SHT35;42558;52.388;13.390;2024-02-04T07:01:11;5.89;86.59
57709;SHT35;42558;52.388;13.390;2024-02-04T07:03:40;5.92;86.53
57709;SHT35;42558;52.388;13.390;2024-02-04T07:06:11;5.93;86.45
57709;SHT35;42558;52.388;13.390;2024-02-04T07:08:48;6.02;86.16
57709;SHT35;42558;52.388;13.390;2024-02-04T07:11:18;5.99;86.10
57709;SHT35;42558;52.388;13.390;2024-02-04T07:13:51;5.95;86.21
57709;SHT35;42558;52.388;13.390;2024-02-04T07:16:29;6.07;86.02
57709;SHT35;42558;52.388;13.390;2024-02-04T07:19:01;6.11;85.64
57709;SHT35;42558;52.388;13.390;2024-02-04T07:21:43;6.20;85.34
57709;SHT35;42558;52.388;13.390;2024-02-04T07:24:18;6.20;85.22
57709;SHT35;42558;52.388;13.390;2024-02-04T07:26:51;6.24;85.08
57709;SHT35;42558;52.388;13.390;2024-02-04T07:29:27;6.25;85.08
57709;SHT35;42558;52.388;13.390;2024-02-04T07:32:08;6.32;84.81
57709;SHT35;42558;52.388;13.390;2024-02-04T07:34:45;6.35;84.57
57709;SHT35;42558;52.388;13.390;2024-02-04T07:37:17;6.38;84.35
57709;SHT35;42558;52.388;13.390;2024-02-04T07:39:54;6.39;84.30
57709;SHT35;42558;52.388;13.390;2024-02-04T07:42:31;6.41;84.34
57709;SHT35;42558;52.388;13.390;2024-02-04T07:45:11;6.39;84.39
57709;SHT35;42558;52.388;13.390;2024-02-04T07:47:44;6.46;84.31
57709;SHT35;42558;52.388;13.390;2024-02-04T07:50:14;6.47;84.23
57709;SHT35;42558;52.388;13.390;2024-02-04T07:52:46;6.53;83.93
57709;SHT35;42558;52.388;13.390;2024-02-04T07:55:16;6.61;83.56
57709;SHT35;42558;52.388;13.390;2024-02-04T07:57:46;6.62;83.47
57709;SHT35;42558;52.388;13.390;2024-02-04T08:00:16;6.63;83.41
57709;SHT35;42558;52.388;13.390;2024-02-04T08:02:49;6.65;83.31
57709;SHT35;42558;52.388;13.390;2024-02-04T08:05:19;6.66;83.23
57709;SHT35;42558;52.388;13.390;2024-02-04T08:07:50;6.67;83.32
57709;SHT35;42558;52.388;13.390;2024-02-04T08:10:30;6.73;83.23
57709;SHT35;42558;52.388;13.390;2024-02-04T08:13:07;6.81;82.70
57709;SHT35;42558;52.388;13.390;2024-02-04T08:15:46;6.90;82.52
57709;SHT35;42558;52.388;13.390;2024-02-04T08:18:17;6.93;82.53
57709;SHT35;42558;52.388;13.390;2024-02-04T08:20:49;6.97;82.30
57709;SHT35;42558;52.388;13.390;2024-02-04T08:23:18;6.99;82.31
57709;SHT35;42558;52.388;13.390;2024-02-04T08:25:59;7.08;81.96
57709;SHT35;42558;52.388;13.390;2024-02-04T08:28:43;7.13;81.97
57709;SHT35;42558;52.388;13.390;2024-02-04T08:31:18;7.13;82.00
57709;SHT35;42558;52.388;13.390;2024-02-04T08:33:50;7.13;81.55
57709;SHT35;42558;52.388;13.390;2024-02-04T08:36:29;7.16;81.37
57709;SHT35;42558;52.388;13.390;2024-02-04T08:39:11;7.17;81.34
57709;SHT35;42558;52.388;13.390;2024-02-04T08:41:51;7.15;81.67
57709;SHT35;42558;52.388;13.390;2024-02-04T08:44:28;7.19;81.53
57709;SHT35;42558;52.388;13.390;2024-02-04T08:47:11;7.22;81.10
57709;SHT35;42558;52.388;13.390;2024-02-04T08:49:51;7.24;80.76
57709;SHT35;42558;52.388;13.390;2024-02-04T08:52:24;7.27;80.10
57709;SHT35;42558;52.388;13.390;2024-02-04T08:54:52;7.34;79.91
57709;SHT35;42558;52.388;13.390;2024-02-04T08:57:21;7.34;80.22
57709;SHT35;42558;52.388;13.390;2024-02-04T08:59:49;7.34;80.08
57709;SHT35;42558;52.388;13.390;2024-02-04T09:02:17;7.38;80.01
57709;SHT35;42558;52.388;13.390;2024-02-04T09:04:46;7.42;79.89
57709;SHT35;42558;52.388;13.390;2024-02-04T09:07:15;7.46;79.41
57709;SHT35;42558;52.388;13.390;2024-02-04T09:09:50;7.50;79.10
57709;SHT35;42558;52.388;13.390;2024-02-04T09:12:24;7.54;78.78
57709;SHT35;42558;52.388;13.390;2024-02-04T09:15:01;7.57;78.40
57709;SHT35;42558;52.388;13.390;2024-02-04T09:17:44;7.58;78.77
57709;SHT35;42558;52.388;13.390;2024-02-04T09:20:18;7.58;78.11
57709;SHT35;42558;52.388;13.390;2024-02-04T09:22:58;7.64;78.05
57709;SHT35;42558;52.388;13.390;2024-02-04T09:25:32;7.65;78.00
57709;SHT35;42558;52.388;13.390;2024-02-04T09:28:09;7.71;77.69
57709;SHT35;42558;52.388;13.390;2024-02-04T09:30:52;7.77;77.23
57709;SHT35;42558;52.388;13.390;2024-02-04T09:33:22;7.82;76.59
57709;SHT35;42558;52.388;13.390;2024-02-04T09:35:53;7.85;76.44
57709;SHT35;42558;52.388;13.390;2024-02-04T09:38:31;7.87;76.51
57709;SHT35;42558;52.388;13.390;2024-02-04T09:41:12;7.94;76.01
57709;SHT35;42558;52.388;13.390;2024-02-04T09:43:49;8.15;76.03
57709;SHT35;42558;52.388;13.390;2024-02-04T09:46:22;8.29;75.01
57709;SHT35;42558;52.388;13.390;2024-02-04T09:49:06;8.42;74.52
57709;SHT35;42558;52.388;13.390;2024-02-04T09:51:52;8.41;73.68
57709;SHT35;42558;52.388;13.390;2024-02-04T09:54:29;8.49;73.55
57709;SHT35;42558;52.388;13.390;2024-02-04T09:57:25;8.40;72.13
57709;SHT35;42558;52.388;13.390;2024-02-04T09:59:56;8.40;72.35
57709;SHT35;42558;52.388;13.390;2024-02-04T10:02:50;8.48;71.94
57709;SHT35;42558;52.388;13.390;2024-02-04T10:05:38;8.53;72.69
57709;SHT35;42558;52.388;13.390;2024-02-04T10:08:14;8.46;72.99
57709;SHT35;42558;52.388;13.390;2024-02-04T10:10:53;8.43;73.03
57709;SHT35;42558;52.388;13.390;2024-02-04T10:13:27;8.43;72.35
57709;SHT35;42558;52.388;13.390;2024-02-04T10:16:02;8.48;71.54
57709;SHT35;42558;52.388;13.390;2024-02-04T10:18:52;8.64;72.02
57709;SHT35;42558;52.388;13.390;2024-02-04T10:21:30;8.72;71.32
57709;SHT35;42558;52.388;13.390;2024-02-04T10:24:18;8.75;71.68
57709;SHT35;42558;52.388;13.390;2024-02-04T10:26:52;8.85;70.85
57709;SHT35;42558;52.388;13.390;2024-02-04T10:29:29;8.74;69.84
57709;SHT35;42558;52.388;13.390;2024-02-04T10:32:05;8.68;70.56
57709;SHT35;42558;52.388;13.390;2024-02-04T10:34:52;8.66;70.41
57709;SHT35;42558;52.388;13.390;2024-02-04T10:37:24;8.64;70.87
57709;SHT35;42558;52.388;13.390;2024-02-04T10:40:07;8.72;71.03
57709;SHT35;42558;52.388;13.390;2024-02-04T10:42:43;8.69;70.68
57709;SHT35;42558;52.388;13.390;2024-02-04T10:45:17;8.64;70.81
57709;SHT35;42558;52.388;13.390;2024-02-04T10:47:53;8.60;70.43
57709;SHT35;42558;52.388;13.390;2024-02-04T10:50:34;8.69;71.19
57709;SHT35;42558;52.388;13.390;2024-02-04T10:53:09;8.61;71.01
57709;SHT35;42558;52.388;13.390;2024-02-04T10:55:50;8.62;71.25
57709;SHT35;42558;52.388;13.390;2024-02-04T10:58:44;8.52;70.05
57709;SHT35;42558;52.388;13.390;2024-02-04T11:01:21;8.61;70.87
57709;SHT35;42558;52.388;13.390;2024-02-04T11:04:05;8.60;70.26
57709;SHT35;42558;52.388;13.390;2024-02-04T11:07:01;8.63;70.59
57709;SHT35;42558;52.388;13.390;2024-02-04T11:09:46;8.64;70.83
57709;SHT35;42558;52.388;13.390;2024-02-04T11:12:26;8.66;70.39
57709;SHT35;42558;52.388;13.390;2024-02-04T11:15:18;8.68;70.11
57709;SHT35;42558;52.388;13.390;2024-02-04T11:24:31;8.69;69.67
57709;SHT35;42558;52.388;13.390;2024-02-04T11:27:18;8.67;69.65
57709;SHT35;42558;52.388;13.390;2024-02-04T11:30:07;8.68;69.08
57709;SHT35;42558;52.388;13.390;2024-02-04T11:32:50;8.69;69.26
57709;SHT35;42558;52.388;13.390;2024-02-04T11:35:27;8.73;69.95
57709;SHT35;42558;52.388;13.390;2024-02-04T11:38:07;8.78;69.62
57709;SHT35;42558;52.388;13.390;2024-02-04T11:40:45;8.82;69.19
57709;SHT35;42558;52.388;13.390;2024-02-04T11:43:22;8.86;69.21
57709;SHT35;42558;52.388;13.390;2024-02-04T11:45:57;8.88;68.77
57709;SHT35;42558;52.388;13.390;2024-02-04T11:48:39;8.89;68.62
57709;SHT35;42558;52.388;13.390;2024-02-04T11:51:17;8.84;68.32
57709;SHT35;42558;52.388;13.390;2024-02-04T11:53:52;8.89;68.46
57709;SHT35;42558;52.388;13.390;2024-02-04T11:56:36;8.84;68.44
57709;SHT35;42558;52.388;13.390;2024-02-04T11:59:27;8.85;68.49
57709;SHT35;42558;52.388;13.390;2024-02-04T12:02:17;8.91;68.15
57709;SHT35;42558;52.388;13.390;2024-02-04T12:04:53;8.88;67.78
57709;SHT35;42558;52.388;13.390;2024-02-04T12:07:32;8.83;67.65
57709;SHT35;42558;52.388;13.390;2024-02-04T12:10:18;8.79;67.68
57709;SHT35;42558;52.388;13.390;2024-02-04T12:12:53;8.77;67.41
57709;SHT35;42558;52.388;13.390;2024-02-04T12:15:25;8.76;66.76
57709;SHT35;42558;52.388;13.390;2024-02-04T12:18:10;8.77;67.01
57709;SHT35;42558;52.388;13.390;2024-02-04T12:21:03;8.76;67.13
57709;SHT35;42558;52.388;13.390;2024-02-04T12:23:36;8.74;67.41
57709;SHT35;42558;52.388;13.390;2024-02-04T12:26:07;8.73;67.39
57709;SHT35;42558;52.388;13.390;2024-02-04T12:28:37;8.67;67.13
57709;SHT35;42558;52.388;13.390;2024-02-04T12:31:16;8.73;67.20
57709;SHT35;42558;52.388;13.390;2024-02-04T12:33:55;8.74;67.01
57709;SHT35;42558;52.388;13.390;2024-02-04T12:36:33;8.74;67.29
57709;SHT35;42558;52.388;13.390;2024-02-04T12:39:03;8.68;67.44
57709;SHT35;42558;52.388;13.390;2024-02-04T12:41:34;8.67;66.95
57709;SHT35;42558;52.388;13.390;2024-02-04T12:44:05;8.66;66.44
57709;SHT35;42558;52.388;13.390;2024-02-04T12:46:35;8.64;66.32
57709;SHT35;42558;52.388;13.390;2024-02-04T12:49:06;8.65;66.27
57709;SHT35;42558;52.388;13.390;2024-02-04T12:51:36;8.65;65.96
57709;SHT35;42558;52.388;13.390;2024-02-04T12:54:09;8.65;65.86
57709;SHT35;42558;52.388;13.390;2024-02-04T12:59:26;8.64;67.01
57709;SHT35;42558;52.388;13.390;2024-02-04T13:02:07;8.61;66.48
57709;SHT35;42558;52.388;13.390;2024-02-04T13:04:39;8.64;66.30
57709;SHT35;42558;52.388;13.390;2024-02-04T13:07:19;8.68;66.35
57709;SHT35;42558;52.388;13.390;2024-02-04T13:09:58;8.68;66.11
57709;SHT35;42558;52.388;13.390;2024-02-04T13:12:43;8.66;66.41
57709;SHT35;42558;52.388;13.390;2024-02-04T13:15:19;8.66;66.58
57709;SHT35;42558;52.388;13.390;2024-02-04T13:17:53;8.69;66.78
57709;SHT35;42558;52.388;13.390;2024-02-04T13:20:31;8.69;66.19
57709;SHT35;42558;52.388;13.390;2024-02-04T13:23:21;8.69;66.34
57709;SHT35;42558;52.388;13.390;2024-02-04T13:25:51;8.68;66.65
57709;SHT35;42558;52.388;13.390;2024-02-04T13:28:31;8.68;66.70
57709;SHT35;42558;52.388;13.390;2024-02-04T13:31:09;8.65;66.93
57709;SHT35;42558;52.388;13.390;2024-02-04T13:33:43;8.65;66.80
57709;SHT35;42558;52.388;13.390;2024-02-04T13:36:30;8.60;67.41
57709;SHT35;42558;52.388;13.390;2024-02-04T13:39:01;8.60;67.28
57709;SHT35;42558;52.388;13.390;2024-02-04T13:41:32;8.59;67.36
57709;SHT35;42558;52.388;13.390;2024-02-04T13:44:04;8.58;67.27
57709;SHT35;42558;52.388;13.390;2024-02-04T13:46:39;8.59;67.05
57709;SHT35;42558;52.388;13.390;2024-02-04T13:49:12;8.58;67.62
57709;SHT35;42558;52.388;13.390;2024-02-04T13:51:50;8.54;67.77
57709;SHT35;42558;52.388;13.390;2024-02-04T13:54:23;8.54;67.68
57709;SHT35;42558;52.388;13.390;2024-02-04T13:56:53;8.54;67.64
57709;SHT35;42558;52.388;13.390;2024-02-04T13:59:25;8.53;68.15
57709;SHT35;42558;52.388;13.390;2024-02-04T14:01:58;8.52;68.01
57709;SHT35;42558;52.388;13.390;2024-02-04T14:04:33;8.52;68.13
57709;SHT35;42558;52.388;13.390;2024-02-04T14:07:07;8.51;68.43
57709;SHT35;42558;52.388;13.390;2024-02-04T14:09:54;8.51;68.24
57709;SHT35;42558;52.388;13.390;2024-02-04T14:12:28;8.53;68.24
57709;SHT35;42558;52.388;13.390;2024-02-04T14:15:08;8.52;68.34
57709;SHT35;42558;52.388;13.390;2024-02-04T14:17:39;8.50;68.75
57709;SHT35;42558;52.388;13.390;2024-02-04T14:20:26;8.50;68.78
57709;SHT35;42558;52.388;13.390;2024-02-04T14:22:59;8.51;69.04
57709;SHT35;42558;52.388;13.390;2024-02-04T14:25:29;8.49;69.18
57709;SHT35;42558;52.388;13.390;2024-02-04T14:28:00;8.48;69.47
57709;SHT35;42558;52.388;13.390;2024-02-04T14:30:31;8.46;69.52
57709;SHT35;42558;52.388;13.390;2024-02-04T14:33:06;8.46;69.33
57709;SHT35;42558;52.388;13.390;2024-02-04T14:35:37;8.45;69.71
57709;SHT35;42558;52.388;13.390;2024-02-04T14:38:09;8.45;69.55
57709;SHT35;42558;52.388;13.390;2024-02-04T14:40:44;8.43;69.69
57709;SHT35;42558;52.388;13.390;2024-02-04T14:43:18;8.43;69.60
57709;SHT35;42558;52.388;13.390;2024-02-04T14:45:58;8.47;69.19
57709;SHT35;42558;52.388;13.390;2024-02-04T14:48:41;8.45;69.27
57709;SHT35;42558;52.388;13.390;2024-02-04T14:51:18;8.45;69.15
57709;SHT35;42558;52.388;13.390;2024-02-04T14:53:54;8.45;69.14
57709;SHT35;42558;52.388;13.390;2024-02-04T14:56:24;8.47;69.01
57709;SHT35;42558;52.388;13.390;2024-02-04T14:59:03;8.49;68.95
57709;SHT35;42558;52.388;13.390;2024-02-04T15:01:54;8.47;69.48
57709;SHT35;42558;52.388;13.390;2024-02-04T15:04:31;8.45;69.52
57709;SHT35;42558;52.388;13.390;2024-02-04T15:07:05;8.48;69.01
57709;SHT35;42558;52.388;13.390;2024-02-04T15:09:45;8.46;69.35
57709;SHT35;42558;52.388;13.390;2024-02-04T15:12:20;8.41;69.79
57709;SHT35;42558;52.388;13.390;2024-02-04T15:15:07;8.38;70.45
57709;SHT35;42558;52.388;13.390;2024-02-04T15:17:46;8.36;70.04
57709;SHT35;42558;52.388;13.390;2024-02-04T15:20:27;8.40;69.70
57709;SHT35;42558;52.388;13.390;2024-02-04T15:23:02;8.39;69.82
57709;SHT35;42558;52.388;13.390;2024-02-04T15:25:40;8.36;70.06
57709;SHT35;42558;52.388;13.390;2024-02-04T15:28:19;8.40;69.41
57709;SHT35;42558;52.388;13.390;2024-02-04T15:30:54;8.43;69.36
57709;SHT35;42558;52.388;13.390;2024-02-04T15:33:26;8.41;69.39
57709;SHT35;42558;52.388;13.390;2024-02-04T15:36:09;8.44;69.23
57709;SHT35;42558;52.388;13.390;2024-02-04T15:38:46;8.40;69.42
57709;SHT35;42558;52.388;13.390;2024-02-04T15:41:16;8.45;68.98
57709;SHT35;42558;52.388;13.390;2024-02-04T15:43:50;8.45;68.99
57709;SHT35;42558;52.388;13.390;2024-02-04T15:46:25;8.43;69.18
57709;SHT35;42558;52.388;13.390;2024-02-04T15:49:14;8.43;69.00
57709;SHT35;42558;52.388;13.390;2024-02-04T15:51:49;8.42;69.21
57709;SHT35;42558;52.388;13.390;2024-02-04T15:54:23;8.47;68.79
57709;SHT35;42558;52.388;13.390;2024-02-04T15:57:03;8.51;68.44
57709;SHT35;42558;52.388;13.390;2024-02-04T15:59:48;8.48;68.71
57709;SHT35;42558;52.388;13.390;2024-02-04T16:02:23;8.47;68.69
57709;SHT35;42558;52.388;13.390;2024-02-04T16:04:57;8.46;68.94
57709;SHT35;42558;52.388;13.390;2024-02-04T16:07:29;8.41;69.31
57709;SHT35;42558;52.388;13.390;2024-02-04T16:10:02;8.39;69.36
57709;SHT35;42558;52.388;13.390;2024-02-04T16:12:35;8.44;69.07
57709;SHT35;42558;52.388;13.390;2024-02-04T16:15:22;8.39;69.59
57709;SHT35;42558;52.388;13.390;2024-02-04T16:17:59;8.33;69.93
57709;SHT35;42558;52.388;13.390;2024-02-04T16:20:48;8.32;70.10
57709;SHT35;42558;52.388;13.390;2024-02-04T16:23:18;8.35;69.67
57709;SHT35;42558;52.388;13.390;2024-02-04T16:26:01;8.35;70.05
57709;SHT35;42558;52.388;13.390;2024-02-04T16:28:34;8.33;70.20
57709;SHT35;42558;52.388;13.390;2024-02-04T16:31:11;8.32;70.25
57709;SHT35;42558;52.388;13.390;2024-02-04T16:33:43;8.30;70.59
57709;SHT35;42558;52.388;13.390;2024-02-04T16:36:14;8.27;70.82
57709;SHT35;42558;52.388;13.390;2024-02-04T16:38:46;8.26;70.78
57709;SHT35;42558;52.388;13.390;2024-02-04T16:41:17;8.30;70.63